Time;durP1;ratioP1;P1;durP2;ratioP2;P2;SDS_P1;SDS_P2;PMS_P1;PMS_P2;Temp;Humidity;BMP_temperature;BMP_pressure;BME280_temperature;BME280_humidity;BME280_pressure;Samples;Min_cycle;Max_cycle;Signal;HPM_P1;HPM_P2
2021/08/30 00:02:14;;;;;;;5.30;3.10;;;16.40;1.00;;;;;;5053591;28;20187;-79
2021/08/30 00:04:49;;;;;;;4.30;2.73;;;16.50;1.00;;;;;;5054048;28;20670;-79
2021/08/30 00:07:20;;;;;;;2.90;2.70;;;16.50;1.00;;;;;;5053601;28;20466;-79
2021/08/30 00:09:51;;;;;;;4.00;3.60;;;16.40;1.00;;;;;;5068926;28;20378;-79
2021/08/30 00:12:20;;;;;;;4.43;3.20;;;16.30;1.00;;;;;;5053717;28;20398;-79
2021/08/30 00:14:50;;;;;;;3.90;3.37;;;16.40;1.00;;;;;;5054373;28;20413;-78
2021/08/30 00:17:19;;;;;;;3.43;3.13;;;16.30;1.00;;;;;;5054157;28;20510;-77
2021/08/30 00:19:50;;;;;;;17.70;3.13;;;16.30;1.00;;;;;;5067452;28;20436;-77
2021/08/30 00:22:19;;;;;;;5.73;3.70;;;16.30;1.00;;;;;;5059084;28;20901;-76
2021/08/30 00:25:25;;;;;;;6.10;3.23;;;16.30;1.00;;;;;;5072208;28;20383;-77
2021/08/30 00:27:56;;;;;;;11.10;3.80;;;16.30;1.00;;;;;;5053955;28;20420;-77
2021/08/30 00:30:32;;;;;;;4.57;3.80;;;16.30;1.00;;;;;;5054494;28;20385;-80
2021/08/30 00:33:02;;;;;;;8.73;4.27;;;16.20;1.00;;;;;;5066306;28;20434;-79
2021/08/30 00:35:44;;;;;;;6.20;3.87;;;16.20;1.00;;;;;;5073583;28;20435;-79
2021/08/30 00:38:14;;;;;;;26.93;4.03;;;16.20;1.00;;;;;;5072280;28;20877;-79
2021/08/30 00:40:40;;;;;;;6.07;3.77;;;16.20;1.00;;;;;;5070658;28;20413;-79
2021/08/30 00:43:19;;;;;;;9.00;4.70;;;16.20;1.00;;;;;;5073403;28;20770;-79
2021/08/30 00:45:50;;;;;;;9.67;4.90;;;16.20;1.00;;;;;;5073579;28;20424;-79
2021/08/30 00:48:20;;;;;;;9.00;5.70;;;16.20;1.00;;;;;;5073268;28;20441;-79
2021/08/30 00:50:50;;;;;;;10.27;6.00;;;16.30;1.00;;;;;;5061808;28;20408;-79
2021/08/30 00:53:16;;;;;;;9.83;5.30;;;16.20;1.00;;;;;;5053410;28;20442;-79
2021/08/30 00:55:42;;;;;;;14.03;6.27;;;16.20;1.00;;;;;;5053501;28;20373;-79
2021/08/30 00:58:14;;;;;;;12.97;5.90;;;16.20;1.00;;;;;;5054772;28;20384;-81
2021/08/30 01:00:44;;;;;;;8.97;5.67;;;16.40;1.00;;;;;;5067265;28;20194;-79
2021/08/30 01:03:10;;;;;;;12.47;6.53;;;16.20;1.00;;;;;;5068413;28;20432;-79
2021/08/30 01:05:40;;;;;;;14.50;5.90;;;16.30;1.00;;;;;;5066618;28;20388;-80
2021/08/30 01:08:34;;;;;;;7.57;5.20;;;16.30;1.00;;;;;;5058495;28;20428;-79
2021/08/30 01:11:27;;;;;;;10.20;6.10;;;16.30;1.00;;;;;;5054084;28;20828;-79
2021/08/30 01:14:37;;;;;;;9.70;5.80;;;16.40;1.00;;;;;;5056845;28;20394;-80
2021/08/30 01:17:16;;;;;;;8.33;6.20;;;16.30;1.00;;;;;;5057539;28;20401;-77
2021/08/30 01:20:10;;;;;;;17.00;6.07;;;16.30;1.00;;;;;;5057562;28;20412;-77
2021/08/30 01:22:45;;;;;;;7.63;5.30;;;16.30;1.00;;;;;;5075740;28;20399;-77
2021/08/30 01:25:18;;;;;;;9.57;6.30;;;16.40;1.00;;;;;;5077168;28;20736;-77
2021/08/30 01:27:44;;;;;;;10.87;5.57;;;16.30;1.00;;;;;;5075781;28;20444;-77
2021/08/30 01:30:21;;;;;;;7.67;5.30;;;16.40;1.00;;;;;;5074620;28;20395;-77
2021/08/30 01:32:52;;;;;;;14.60;6.27;;;16.40;1.00;;;;;;5064104;28;20524;-79
2021/08/30 01:35:22;;;;;;;13.83;6.17;;;16.30;1.00;;;;;;5056379;28;20424;-79
2021/08/30 01:37:51;;;;;;;12.50;7.27;;;16.30;1.00;;;;;;5056393;28;20487;-79
2021/08/30 01:40:19;;;;;;;10.10;7.23;;;16.30;1.00;;;;;;5063648;28;20571;-79
2021/08/30 01:42:52;;;;;;;13.33;6.30;;;16.30;1.00;;;;;;5075268;28;20407;-79
2021/08/30 01:45:33;;;;;;;13.17;6.27;;;16.40;1.00;;;;;;5076219;28;20417;-79
2021/08/30 01:48:50;;;;;;;7.80;6.10;;;16.30;1.00;;;;;;5058370;28;20428;-79
2021/08/30 01:51:26;;;;;;;11.47;6.50;;;16.40;1.00;;;;;;5058125;28;20425;-79
2021/08/30 01:53:56;;;;;;;12.57;6.53;;;16.40;1.00;;;;;;5056519;28;20426;-79
2021/08/30 01:56:57;;;;;;;7.30;6.00;;;16.50;1.00;;;;;;5060922;28;20480;-79
2021/08/30 02:02:50;;;;;;;12.47;6.00;;;16.30;1.00;;;;;;5038850;28;20402;-77
2021/08/30 02:05:19;;;;;;;18.13;6.50;;;16.30;1.00;;;;;;5036862;28;20390;-77
2021/08/30 02:07:56;;;;;;;13.53;6.70;;;16.30;1.00;;;;;;5043176;28;20445;-77
2021/08/30 02:10:38;;;;;;;7.67;5.80;;;16.20;1.00;;;;;;5034441;28;20752;-77
2021/08/30 02:13:22;;;;;;;8.77;5.77;;;16.30;1.00;;;;;;5034108;28;20901;-77
2021/08/30 02:16:00;;;;;;;11.83;6.67;;;16.30;1.00;;;;;;5050725;28;20864;-77
2021/08/30 02:18:51;;;;;;;8.97;6.50;;;16.30;1.00;;;;;;5034254;28;20419;-77
2021/08/30 02:21:28;;;;;;;9.50;6.07;;;16.30;1.00;;;;;;5034349;28;20409;-77
2021/08/30 02:23:58;;;;;;;10.50;6.70;;;16.20;1.00;;;;;;5033905;28;20936;-77
2021/08/30 02:27:02;;;;;;;11.00;7.33;;;16.30;1.00;;;;;;5034062;28;20454;-77
2021/08/30 02:29:39;;;;;;;14.33;6.70;;;16.10;1.00;;;;;;4974164;28;20408;-77
2021/08/30 02:32:15;;;;;;;18.60;7.73;;;16.10;1.00;;;;;;4962531;28;20408;-79
2021/08/30 02:34:47;;;;;;;10.43;6.70;;;16.10;1.00;;;;;;4955332;29;20856;-79
2021/08/30 02:37:30;;;;;;;11.90;6.80;;;16.20;1.00;;;;;;4955377;29;20466;-79
2021/08/30 02:39:57;;;;;;;11.23;8.03;;;16.00;1.00;;;;;;4977262;28;20399;-79
2021/08/30 02:42:50;;;;;;;11.47;7.23;;;16.10;1.00;;;;;;4987752;28;20488;-79
2021/08/30 02:45:32;;;;;;;13.57;7.77;;;16.10;1.00;;;;;;4993929;28;20420;-79
2021/08/30 02:48:00;;;;;;;10.07;7.10;;;16.20;1.00;;;;;;4994450;28;20751;-76
2021/08/30 02:50:28;;;;;;;18.53;8.07;;;16.30;1.00;;;;;;4994519;28;20394;-77
2021/08/30 02:53:03;;;;;;;14.23;7.47;;;16.30;1.00;;;;;;4994041;28;20647;-77
2021/08/30 02:55:29;;;;;;;13.63;7.60;;;16.30;1.00;;;;;;4994105;28;20372;-77
2021/08/30 02:58:05;;;;;;;9.77;6.77;;;16.30;1.00;;;;;;4993991;28;20832;-77
2021/08/30 03:00:32;;;;;;;10.57;7.40;;;16.40;1.00;;;;;;4992802;28;20535;-77
2021/08/30 03:06:19;;;;;;;9.03;6.17;;;16.40;1.00;;;;;;5054607;28;20471;-79
2021/08/30 03:09:02;;;;;;;9.90;6.83;;;16.40;1.00;;;;;;5073534;28;20522;-80
2021/08/30 03:11:29;;;;;;;10.10;6.97;;;16.50;1.00;;;;;;5069689;28;20385;-79
2021/08/30 03:13:57;;;;;;;17.20;6.40;;;16.50;1.00;;;;;;5054298;28;20365;-79
2021/08/30 03:16:26;;;;;;;10.57;7.40;;;16.50;1.00;;;;;;5054589;28;20840;-78
2021/08/30 03:18:52;;;;;;;10.30;7.00;;;16.50;1.00;;;;;;5054241;28;20398;-77
2021/08/30 03:21:19;;;;;;;16.33;7.40;;;16.60;1.00;;;;;;5053165;28;20914;-77
2021/08/30 03:23:51;;;;;;;11.57;7.40;;;16.60;1.00;;;;;;5055035;28;20400;-77
2021/08/30 03:26:18;;;;;;;18.97;7.70;;;16.60;1.00;;;;;;5054829;28;20396;-77
2021/08/30 03:28:52;;;;;;;8.83;6.70;;;16.60;1.00;;;;;;5054720;28;20473;-77
2021/08/30 03:31:19;;;;;;;13.67;7.50;;;16.60;1.00;;;;;;5055590;28;20400;-77
2021/08/30 03:34:08;;;;;;;15.00;6.60;;;16.60;1.00;;;;;;5073994;28;20495;-79
2021/08/30 03:36:45;;;;;;;10.13;6.77;;;16.50;1.00;;;;;;5054315;28;20387;-79
2021/08/30 03:39:15;;;;;;;11.17;7.20;;;16.60;1.00;;;;;;5067786;28;20409;-79
2021/08/30 03:41:44;;;;;;;15.47;6.80;;;16.60;1.00;;;;;;5073537;28;20376;-79
2021/08/30 03:44:14;;;;;;;14.53;7.60;;;16.60;1.00;;;;;;5074402;28;20392;-79
2021/08/30 03:47:13;;;;;;;11.40;7.00;;;16.50;1.00;;;;;;5074577;28;20348;-79
2021/08/30 03:49:40;;;;;;;10.40;7.00;;;16.60;1.00;;;;;;5072796;28;20804;-79
2021/08/30 03:52:08;;;;;;;10.17;6.63;;;16.70;1.00;;;;;;5073983;28;20442;-81
2021/08/30 03:54:38;;;;;;;11.53;7.10;;;16.60;1.00;;;;;;5074128;28;20399;-82
2021/08/30 03:57:13;;;;;;;17.43;7.20;;;16.60;1.00;;;;;;5073706;28;20380;-82
2021/08/30 03:59:48;;;;;;;15.80;8.27;;;16.60;1.00;;;;;;5065047;28;20406;-82
2021/08/30 04:02:17;;;;;;;14.63;7.67;;;16.60;1.00;;;;;;5068106;28;20884;-77
2021/08/30 04:04:44;;;;;;;8.53;6.27;;;16.70;1.00;;;;;;5069397;28;20395;-77
2021/08/30 04:07:21;;;;;;;11.93;6.47;;;16.70;1.00;;;;;;5073733;28;20490;-77
2021/08/30 04:09:50;;;;;;;12.83;7.27;;;16.70;1.00;;;;;;5057612;28;21610;-78
2021/08/30 04:12:21;;;;;;;17.27;7.70;;;16.70;1.00;;;;;;5068888;28;20832;-76
2021/08/30 04:14:48;;;;;;;12.30;6.90;;;16.80;1.00;;;;;;5065839;28;20409;-77
2021/08/30 04:17:14;;;;;;;12.70;7.40;;;16.70;1.00;;;;;;5061470;28;20421;-80
2021/08/30 04:19:40;;;;;;;11.37;7.27;;;16.70;1.00;;;;;;5073446;28;20411;-80
2021/08/30 04:22:25;;;;;;;15.53;7.87;;;16.60;1.00;;;;;;5058640;28;20397;-80
2021/08/30 04:24:56;;;;;;;14.10;7.33;;;16.60;1.00;;;;;;5054251;28;20395;-81
2021/08/30 04:27:26;;;;;;;10.93;6.97;;;16.70;1.00;;;;;;5052158;28;20809;-80
2021/08/30 04:30:25;;;;;;;12.90;7.97;;;16.70;1.00;;;;;;5057021;28;20406;-80
2021/08/30 04:33:25;;;;;;;11.83;7.90;;;16.70;1.00;;;;;;5066525;28;20438;-80
2021/08/30 04:36:02;;;;;;;13.80;8.00;;;16.70;1.00;;;;;;5053920;28;20468;-80
2021/08/30 04:38:38;;;;;;;9.67;7.30;;;16.70;1.00;;;;;;5053577;28;20467;-80
2021/08/30 04:41:15;;;;;;;13.03;7.73;;;16.70;1.00;;;;;;5058570;28;20385;-80
2021/08/30 04:43:56;;;;;;;12.67;7.10;;;16.80;1.00;;;;;;5062385;28;20421;-91
2021/08/30 04:49:44;;;;;;;18.37;8.03;;;16.80;1.00;;;;;;5078461;28;20394;-90
2021/08/30 04:55:31;;;;;;;15.43;7.60;;;16.70;1.00;;;;;;5058308;28;20417;-90
2021/08/30 04:58:04;;;;;;;11.93;7.60;;;16.70;1.00;;;;;;5057918;28;20389;-91
2021/08/30 05:01:07;;;;;;;9.40;7.10;;;16.70;1.00;;;;;;5063814;28;20182;-90
2021/08/30 05:03:33;;;;;;;15.03;7.33;;;16.70;1.00;;;;;;5067615;28;20409;-90
2021/08/30 05:06:14;;;;;;;11.20;7.07;;;16.70;1.00;;;;;;5076575;28;20396;-90
2021/08/30 05:09:01;;;;;;;10.73;7.60;;;16.80;1.00;;;;;;5070482;28;20473;-89
2021/08/30 05:11:27;;;;;;;9.40;6.70;;;16.80;1.00;;;;;;5082875;28;20413;-90
2021/08/30 05:17:49;;;;;;;9.67;6.93;;;16.80;1.00;;;;;;5071834;28;20210;-89
2021/08/30 05:20:26;;;;;;;15.23;8.30;;;16.80;1.00;;;;;;5077000;28;20415;-82
2021/08/30 05:23:19;;;;;;;11.63;7.00;;;16.90;1.00;;;;;;5067513;28;20526;-82
2021/08/30 05:25:45;;;;;;;11.97;7.83;;;16.90;1.00;;;;;;5071247;28;20509;-82
2021/08/30 05:28:43;;;;;;;12.33;6.73;;;17.00;1.00;;;;;;5072778;28;20544;-82
2021/08/30 05:31:09;;;;;;;11.17;7.10;;;17.10;1.00;;;;;;5066585;28;20476;-82
2021/08/30 05:33:37;;;;;;;10.93;6.97;;;17.10;1.00;;;;;;5064967;28;20422;-81
2021/08/30 05:36:08;;;;;;;10.13;6.50;;;17.10;1.00;;;;;;5080571;28;20170;-81
2021/08/30 05:38:44;;;;;;;11.77;7.37;;;17.20;1.00;;;;;;5066698;28;20468;-81
2021/08/30 05:41:31;;;;;;;11.13;6.87;;;17.10;1.00;;;;;;5071695;28;20421;-81
2021/08/30 05:43:57;;;;;;;17.47;7.67;;;17.10;1.00;;;;;;5056297;28;21011;-81
2021/08/30 05:46:26;;;;;;;10.63;8.17;;;17.10;1.00;;;;;;5055618;28;20430;-80
2021/08/30 05:48:51;;;;;;;14.03;7.83;;;17.10;1.00;;;;;;5081154;28;20810;-79
2021/08/30 05:51:17;;;;;;;16.00;6.23;;;17.20;1.00;;;;;;5091920;28;20404;-78
2021/08/30 05:54:01;;;;;;;11.77;7.00;;;17.20;1.00;;;;;;5069549;28;20177;-78
2021/08/30 05:56:27;;;;;;;14.40;7.70;;;17.30;1.00;;;;;;5072965;28;20180;-79
2021/08/30 05:59:13;;;;;;;19.33;7.97;;;17.30;1.00;;;;;;5083425;28;20450;-78
2021/08/30 06:01:41;;;;;;;16.13;7.93;;;17.30;1.00;;;;;;5064529;28;20425;-78
2021/08/30 06:04:20;;;;;;;10.73;8.03;;;17.30;1.00;;;;;;5069427;28;20891;-79
2021/08/30 06:06:45;;;;;;;14.07;7.53;;;17.30;1.00;;;;;;5066349;28;20408;-79
2021/08/30 06:09:11;;;;;;;13.33;7.43;;;17.30;1.00;;;;;;5073356;28;20931;-78
2021/08/30 06:11:36;;;;;;;10.63;7.37;;;17.30;1.00;;;;;;5066688;28;20181;-78
2021/08/30 06:14:02;;;;;;;10.80;6.63;;;17.40;1.00;;;;;;5075521;28;20702;-77
2021/08/30 06:16:28;;;;;;;12.50;7.63;;;17.40;1.00;;;;;;5068630;28;20645;-77
2021/08/30 06:18:53;;;;;;;15.03;7.40;;;17.60;1.00;;;;;;5069438;28;20179;-77
2021/08/30 06:21:19;;;;;;;11.73;6.73;;;17.60;1.00;;;;;;5074608;28;20180;-77
2021/08/30 06:23:44;;;;;;;13.00;7.00;;;17.60;1.00;;;;;;5071293;28;20172;-77
2021/08/30 06:26:10;;;;;;;14.40;6.83;;;17.60;1.00;;;;;;5073183;28;20172;-77
2021/08/30 06:28:36;;;;;;;16.10;8.07;;;17.70;1.00;;;;;;5072663;28;20184;-77
2021/08/30 06:31:01;;;;;;;12.33;7.10;;;17.70;1.00;;;;;;5072447;28;20171;-77
2021/08/30 06:33:27;;;;;;;10.73;6.77;;;17.80;1.00;;;;;;5074873;28;20642;-78
2021/08/30 06:35:52;;;;;;;11.20;7.17;;;17.90;1.00;;;;;;5074551;28;20537;-78
2021/08/30 06:38:18;;;;;;;10.93;6.97;;;17.90;1.00;;;;;;5070342;28;20664;-78
2021/08/30 06:40:44;;;;;;;11.63;7.17;;;18.00;1.00;;;;;;5057401;28;20191;-77
2021/08/30 06:43:09;;;;;;;11.80;7.10;;;18.00;1.00;;;;;;5056457;28;20233;-77
2021/08/30 06:45:38;;;;;;;10.70;7.07;;;18.10;1.00;;;;;;5068458;28;20197;-77
2021/08/30 06:48:04;;;;;;;13.23;6.90;;;18.10;1.00;;;;;;5073024;28;20209;-77
2021/08/30 06:50:30;;;;;;;14.80;7.20;;;18.10;1.00;;;;;;5074289;28;20407;-79
2021/08/30 06:52:56;;;;;;;11.30;7.40;;;18.10;1.00;;;;;;5074237;28;20469;-79
2021/08/30 06:55:21;;;;;;;13.33;7.70;;;18.20;1.00;;;;;;5073866;28;20209;-79
2021/08/30 06:57:47;;;;;;;15.33;7.70;;;18.10;1.00;;;;;;5074633;28;20158;-79
2021/08/30 07:00:16;;;;;;;11.87;7.23;;;18.20;1.00;;;;;;5058194;28;20250;-79
2021/08/30 07:02:42;;;;;;;13.60;8.30;;;18.20;1.00;;;;;;5072708;28;20402;-79
2021/08/30 07:05:08;;;;;;;17.67;7.97;;;18.30;1.00;;;;;;5074355;28;20744;-79
2021/08/30 07:07:34;;;;;;;13.10;8.13;;;18.40;1.00;;;;;;5073599;28;20193;-79
2021/08/30 07:09:59;;;;;;;13.07;7.30;;;18.40;1.00;;;;;;5071682;28;20165;-79
2021/08/30 07:12:25;;;;;;;16.00;8.10;;;18.50;1.00;;;;;;5073932;28;20193;-79
2021/08/30 07:14:51;;;;;;;12.73;7.43;;;18.60;1.00;;;;;;5072189;28;20253;-79
2021/08/30 07:17:16;;;;;;;15.37;8.10;;;18.60;1.00;;;;;;5073470;28;20239;-79
2021/08/30 07:19:42;;;;;;;10.20;7.37;;;18.70;1.00;;;;;;5072865;28;20526;-79
2021/08/30 07:22:08;;;;;;;15.50;7.97;;;18.60;1.00;;;;;;5073819;28;20690;-79
2021/08/30 07:24:33;;;;;;;9.93;7.43;;;18.60;1.00;;;;;;5073824;28;20173;-79
2021/08/30 07:27:02;;;;;;;13.63;6.90;;;18.70;1.00;;;;;;5073224;28;20169;-78
2021/08/30 07:29:29;;;;;;;17.13;7.30;;;18.80;1.00;;;;;;5072484;28;20174;-78
2021/08/30 07:31:54;;;;;;;13.43;8.20;;;18.90;1.00;;;;;;5072792;28;20411;-77
2021/08/30 07:34:20;;;;;;;9.80;6.87;;;18.90;1.00;;;;;;5073393;28;20892;-78
2021/08/30 07:36:46;;;;;;;10.80;7.80;;;19.10;1.00;;;;;;5067783;28;20220;-80
2021/08/30 07:39:11;;;;;;;10.20;6.70;;;19.10;1.00;;;;;;5056637;28;20613;-79
2021/08/30 07:41:37;;;;;;;13.73;7.20;;;19.20;1.00;;;;;;5054426;28;20186;-78
2021/08/30 07:44:03;;;;;;;12.73;7.20;;;19.20;1.00;;;;;;5065140;28;20185;-79
2021/08/30 07:46:32;;;;;;;9.03;6.90;;;19.30;1.00;;;;;;5073141;28;20166;-79
2021/08/30 07:48:57;;;;;;;13.10;7.30;;;19.40;1.00;;;;;;5056301;28;20205;-77
2021/08/30 07:51:23;;;;;;;10.80;7.30;;;19.50;1.00;;;;;;5058996;28;20400;-77
2021/08/30 07:53:49;;;;;;;9.97;6.70;;;19.60;1.00;;;;;;5053169;28;20681;-77
2021/08/30 07:56:15;;;;;;;13.33;7.20;;;19.60;1.00;;;;;;5057836;28;20197;-77
2021/08/30 07:58:41;;;;;;;13.00;6.80;;;19.90;1.00;;;;;;5064626;28;20171;-78
2021/08/30 08:01:06;;;;;;;9.20;6.10;;;19.90;1.00;;;;;;5058626;28;20456;-78
2021/08/30 08:03:32;;;;;;;24.73;6.53;;;20.00;1.00;;;;;;5072482;28;20882;-77
2021/08/30 08:05:57;;;;;;;15.87;7.20;;;20.10;1.00;;;;;;5072447;28;20187;-77
2021/08/30 08:08:23;;;;;;;8.30;6.90;;;20.20;1.00;;;;;;5071029;28;20555;-77
2021/08/30 08:10:49;;;;;;;8.10;6.60;;;20.20;1.00;;;;;;5071166;28;20217;-77
2021/08/30 08:13:14;;;;;;;9.67;6.87;;;20.20;1.00;;;;;;5072958;28;20579;-77
2021/08/30 08:15:41;;;;;;;17.53;6.60;;;20.20;1.00;;;;;;5071145;28;20167;-77
2021/08/30 08:18:07;;;;;;;15.40;7.30;;;20.10;1.00;;;;;;5072616;28;20710;-77
2021/08/30 08:20:33;;;;;;;10.60;7.03;;;20.20;1.00;;;;;;5073091;28;20390;-77
2021/08/30 08:23:00;;;;;;;8.87;6.50;;;20.20;1.00;;;;;;5071482;28;20650;-77
2021/08/30 08:25:44;;;;;;;10.77;6.77;;;20.20;1.00;;;;;;5061355;28;20430;-77
2021/08/30 08:28:14;;;;;;;12.10;6.90;;;20.30;1.00;;;;;;5071120;28;20457;-79
2021/08/30 08:30:56;;;;;;;12.27;7.30;;;20.50;1.00;;;;;;5063423;28;20406;-77
2021/08/30 08:33:32;;;;;;;14.70;7.67;;;20.50;1.00;;;;;;5087563;28;20445;-77
2021/08/30 08:36:01;;;;;;;11.83;6.70;;;20.40;1.00;;;;;;5092925;28;20400;-77
2021/08/30 08:38:26;;;;;;;9.40;7.03;;;20.40;1.00;;;;;;5078356;28;20414;-77
2021/08/30 08:40:52;;;;;;;10.80;7.23;;;20.60;1.00;;;;;;5061599;28;20439;-77
2021/08/30 08:43:19;;;;;;;10.80;6.90;;;20.90;1.00;;;;;;5052997;28;20234;-78
2021/08/30 08:45:47;;;;;;;8.50;6.60;;;21.00;1.00;;;;;;5066018;28;20389;-77
2021/08/30 08:48:13;;;;;;;15.73;7.67;;;21.10;1.00;;;;;;5073424;28;20453;-77
2021/08/30 08:50:44;;;;;;;10.47;7.27;;;21.20;1.00;;;;;;5073598;28;20386;-77
2021/08/30 08:53:14;;;;;;;11.03;7.83;;;21.30;1.00;;;;;;5072239;28;20768;-77
2021/08/30 08:55:40;;;;;;;11.93;7.13;;;21.30;1.00;;;;;;5063184;28;20530;-77
2021/08/30 08:58:14;;;;;;;9.47;7.47;;;21.40;1.00;;;;;;5052994;28;20431;-77
2021/08/30 09:00:57;;;;;;;11.07;7.00;;;21.30;1.00;;;;;;5075443;28;20180;-77
2021/08/30 09:03:23;;;;;;;12.20;7.60;;;21.30;1.00;;;;;;5073025;28;20489;-77
2021/08/30 09:06:00;;;;;;;7.90;6.60;;;21.50;1.00;;;;;;5073816;28;20421;-77
2021/08/30 09:08:32;;;;;;;8.77;6.43;;;21.50;1.00;;;;;;5073060;28;20191;-77
2021/08/30 09:11:01;;;;;;;14.27;7.30;;;21.70;1.00;;;;;;5072085;28;20395;-78
2021/08/30 09:13:31;;;;;;;13.77;6.70;;;21.70;1.00;;;;;;5054692;28;20417;-77
2021/08/30 09:16:26;;;;;;;12.23;7.17;;;21.70;1.00;;;;;;5052294;28;20441;-88
2021/08/30 09:22:14;;;;;;;16.43;7.47;;;21.90;1.00;;;;;;5052854;28;20499;-82
2021/08/30 09:24:40;;;;;;;9.17;6.60;;;22.00;1.00;;;;;;5070047;28;20425;-79
2021/08/30 09:27:14;;;;;;;9.97;6.67;;;21.90;1.00;;;;;;5068756;28;20415;-78
2021/08/30 09:29:50;;;;;;;10.27;6.53;;;21.80;1.00;;;;;;5068222;28;20170;-78
2021/08/30 09:32:20;;;;;;;12.33;6.37;;;21.80;1.00;;;;;;5059935;28;20440;-78
2021/08/30 09:34:48;;;;;;;12.13;7.37;;;21.70;1.00;;;;;;5056669;28;20388;-77
2021/08/30 09:37:19;;;;;;;9.70;6.70;;;21.90;1.00;;;;;;5060287;28;20407;-78
2021/08/30 09:39:46;;;;;;;10.03;6.40;;;21.80;1.00;;;;;;5074157;28;20420;-77
2021/08/30 09:42:12;;;;;;;9.87;6.73;;;21.70;1.00;;;;;;5076525;28;20396;-77
2021/08/30 09:44:38;;;;;;;9.80;7.60;;;21.60;1.00;;;;;;5068168;28;21016;-77
2021/08/30 09:47:33;;;;;;;12.17;7.13;;;21.60;1.00;;;;;;5073227;28;20906;-77
2021/08/30 09:49:58;;;;;;;8.67;6.30;;;21.30;1.00;;;;;;5010082;28;20330;-77
2021/08/30 09:52:24;;;;;;;13.43;6.70;;;21.30;1.00;;;;;;5013675;28;20847;-77
2021/08/30 09:54:51;;;;;;;9.53;6.80;;;20.90;1.00;;;;;;5013463;28;20412;-84
2021/08/30 09:57:17;;;;;;;12.50;7.17;;;20.70;1.00;;;;;;5012207;28;20189;-78
2021/08/30 09:59:44;;;;;;;11.83;7.57;;;20.70;1.00;;;;;;5007295;28;20454;-77
2021/08/30 10:02:14;;;;;;;9.43;6.57;;;20.60;1.00;;;;;;5013100;28;20430;-77
2021/08/30 10:04:41;;;;;;;10.80;7.47;;;20.50;1.00;;;;;;5007121;28;20869;-77
2021/08/30 10:07:08;;;;;;;9.20;7.17;;;20.30;1.00;;;;;;5012627;28;20927;-79
2021/08/30 10:09:34;;;;;;;11.30;7.40;;;20.30;1.00;;;;;;5014638;28;20527;-79
2021/08/30 10:12:00;;;;;;;11.00;7.30;;;20.30;1.00;;;;;;5009583;28;20456;-79
2021/08/30 10:14:30;;;;;;;10.87;7.63;;;20.30;1.00;;;;;;5012663;28;20429;-77
2021/08/30 10:16:57;;;;;;;11.73;7.10;;;20.40;1.00;;;;;;5009992;28;20403;-80
2021/08/30 10:19:36;;;;;;;13.40;6.40;;;20.40;1.00;;;;;;5007483;28;20532;-77
2021/08/30 10:22:19;;;;;;;9.93;6.50;;;20.30;1.00;;;;;;4995804;28;20436;-77
2021/08/30 10:24:46;;;;;;;7.63;6.47;;;20.30;1.00;;;;;;4982039;28;20434;-77
2021/08/30 10:27:12;;;;;;;19.57;6.53;;;20.30;1.00;;;;;;5045614;28;20412;-77
2021/08/30 10:29:40;;;;;;;10.60;6.67;;;20.30;1.00;;;;;;5056486;28;21006;-77
2021/08/30 10:32:09;;;;;;;9.30;6.60;;;20.40;1.00;;;;;;5063580;28;20425;-77
2021/08/30 10:34:38;;;;;;;9.77;7.17;;;20.40;1.00;;;;;;5067044;28;20414;-77
2021/08/30 10:37:04;;;;;;;12.00;6.60;;;20.80;1.00;;;;;;5073711;28;20412;-79
2021/08/30 10:39:42;;;;;;;12.00;6.70;;;;;;;;;;5074081;28;20408;-79
2021/08/30 10:42:12;;;;;;;7.47;6.13;;;20.90;1.00;;;;;;5072715;28;20414;-79
2021/08/30 10:44:56;;;;;;;8.83;6.53;;;20.90;1.00;;;;;;5075459;28;20962;-79
2021/08/30 10:47:24;;;;;;;8.10;5.83;;;20.90;1.00;;;;;;5068753;28;20523;-79
2021/08/30 10:49:51;;;;;;;17.60;6.80;;;21.10;1.00;;;;;;5070618;28;20910;-79
2021/08/30 10:52:36;;;;;;;10.47;6.27;;;21.30;1.00;;;;;;5055030;28;20400;-77
2021/08/30 10:55:15;;;;;;;8.07;5.93;;;21.30;1.00;;;;;;5064732;28;20413;-77
2021/08/30 10:57:50;;;;;;;10.93;6.63;;;21.80;1.00;;;;;;5074382;28;20403;-77
2021/08/30 11:00:16;;;;;;;8.40;6.17;;;21.80;1.00;;;;;;5058998;28;20408;-77
2021/08/30 11:02:49;;;;;;;7.40;5.60;;;21.90;1.00;;;;;;5063955;28;20420;-86
2021/08/30 11:05:24;;;;;;;13.90;6.03;;;22.10;1.00;;;;;;5074875;28;20425;-85
2021/08/30 11:08:03;;;;;;;11.13;6.00;;;22.30;1.00;;;;;;5071772;28;20452;-77
2021/08/30 11:10:29;;;;;;;8.40;6.40;;;22.80;1.00;;;;;;5074149;28;20413;-76
2021/08/30 11:13:02;;;;;;;8.23;6.13;;;22.80;1.00;;;;;;5061817;28;20426;-75
2021/08/30 11:15:34;;;;;;;10.30;5.90;;;23.00;1.00;;;;;;5054612;28;20901;-76
2021/08/30 11:18:06;;;;;;;8.70;6.50;;;23.20;1.00;;;;;;5061913;28;20422;-75
2021/08/30 11:20:33;;;;;;;8.70;6.30;;;23.00;1.00;;;;;;5063754;28;20433;-75
2021/08/30 11:22:59;;;;;;;11.90;6.47;;;22.90;1.00;;;;;;5054806;28;20753;-80
2021/08/30 11:25:34;;;;;;;11.23;6.07;;;22.90;1.00;;;;;;5055088;28;20417;-75
2021/08/30 11:28:00;;;;;;;10.37;6.60;;;22.80;1.00;;;;;;5059008;28;20587;-75
2021/08/30 11:30:32;;;;;;;10.43;6.77;;;22.60;1.00;;;;;;5054546;28;20428;-76
2021/08/30 11:33:36;;;;;;;11.03;6.60;;;22.30;1.00;;;;;;5054760;28;20420;-75
2021/08/30 11:36:05;;;;;;;10.97;6.27;;;22.00;1.00;;;;;;5012838;28;20430;-76
2021/08/30 11:38:32;;;;;;;10.17;5.60;;;21.90;1.00;;;;;;5012744;28;20422;-75
2021/08/30 11:41:06;;;;;;;8.30;6.23;;;21.90;1.00;;;;;;5012555;28;20406;-75
2021/08/30 11:44:04;;;;;;;8.50;6.07;;;21.90;1.00;;;;;;5012752;28;20505;-75
2021/08/30 11:46:46;;;;;;;8.43;5.63;;;21.80;1.00;;;;;;5011869;28;20454;-75
2021/08/30 11:49:12;;;;;;;9.37;5.73;;;21.60;1.00;;;;;;5012412;28;20589;-75
2021/08/30 11:51:46;;;;;;;9.03;5.80;;;21.50;1.00;;;;;;4996924;28;20689;-75
2021/08/30 11:54:42;;;;;;;10.07;5.13;;;21.40;1.00;;;;;;4995151;28;20414;-80
2021/08/30 11:57:13;;;;;;;6.30;5.60;;;21.30;1.00;;;;;;5009890;28;20466;-78
2021/08/30 11:59:56;;;;;;;9.53;5.77;;;21.20;1.00;;;;;;5012207;28;20424;-78
2021/08/30 12:02:38;;;;;;;8.13;5.70;;;21.10;1.00;;;;;;5011914;28;20399;-79
2021/08/30 12:05:14;;;;;;;9.63;6.60;;;21.00;1.00;;;;;;5012252;28;20418;-79
2021/08/30 12:07:44;;;;;;;7.10;5.80;;;20.90;1.00;;;;;;5012254;28;20448;-79
2021/08/30 12:10:14;;;;;;;13.73;6.97;;;20.90;1.00;;;;;;5036254;28;20418;-79
2021/08/30 12:15:22;;;;;;;10.93;6.40;;;20.70;1.00;;;;;;5053785;28;20839;-78
2021/08/30 12:17:50;;;;;;;10.77;6.77;;;20.60;1.00;;;;;;5053564;28;20396;-79
2021/08/30 12:20:31;;;;;;;8.97;6.57;;;20.30;1.00;;;;;;5053464;28;20803;-80
2021/08/30 12:23:10;;;;;;;11.13;6.03;;;20.20;1.00;;;;;;5053903;28;20734;-80
2021/08/30 12:25:41;;;;;;;9.73;6.27;;;20.20;1.00;;;;;;5053868;28;20362;-79
2021/08/30 12:28:10;;;;;;;12.40;7.50;;;20.10;1.00;;;;;;5053656;28;20492;-79
2021/08/30 12:30:51;;;;;;;11.13;7.60;;;20.00;1.00;;;;;;5053331;28;20390;-79
2021/08/30 12:33:28;;;;;;;10.10;7.67;;;19.90;1.00;;;;;;5053442;28;20454;-79
2021/08/30 12:36:00;;;;;;;12.57;7.53;;;19.80;1.00;;;;;;5053342;28;20448;-79
2021/08/30 12:38:32;;;;;;;8.47;6.67;;;19.80;1.00;;;;;;5053635;28;20395;-80
2021/08/30 12:41:03;;;;;;;12.60;7.00;;;19.80;1.00;;;;;;5053083;28;20493;-77
2021/08/30 12:43:32;;;;;;;10.80;6.50;;;19.90;1.00;;;;;;5067771;28;20410;-77
2021/08/30 12:46:06;;;;;;;10.37;7.07;;;20.00;1.00;;;;;;5069613;28;20859;-77
2021/08/30 12:48:32;;;;;;;8.83;6.63;;;20.10;1.00;;;;;;5070991;28;20418;-77
2021/08/30 12:50:57;;;;;;;9.33;6.53;;;20.20;1.00;;;;;;5062974;28;20752;-77
2021/08/30 12:53:24;;;;;;;9.40;6.83;;;20.50;1.00;;;;;;5072902;28;20205;-77
2021/08/30 12:55:49;;;;;;;10.50;5.93;;;20.60;1.00;;;;;;5064976;28;20560;-77
2021/08/30 12:58:15;;;;;;;9.67;6.67;;;20.60;1.00;;;;;;5073089;28;20446;-78
2021/08/30 13:00:43;;;;;;;9.83;6.83;;;20.70;1.00;;;;;;5071278;28;20173;-77
2021/08/30 13:03:08;;;;;;;10.07;6.83;;;20.70;1.00;;;;;;5069036;28;20184;-78
2021/08/30 13:05:43;;;;;;;8.70;6.30;;;20.70;1.00;;;;;;5052923;28;20423;-77
2021/08/30 13:08:15;;;;;;;12.73;7.30;;;20.70;1.00;;;;;;5058333;28;20187;-77
2021/08/30 13:10:46;;;;;;;10.00;7.30;;;20.70;1.00;;;;;;5071604;28;20408;-77
2021/08/30 13:13:13;;;;;;;10.43;7.10;;;20.80;1.00;;;;;;5076489;28;20926;-77
2021/08/30 13:15:42;;;;;;;11.37;6.90;;;20.80;1.00;;;;;;5077098;28;20444;-77
2021/08/30 13:18:09;;;;;;;10.13;6.60;;;20.80;1.00;;;;;;5076407;28;20516;-78
2021/08/30 13:20:52;;;;;;;12.60;7.13;;;20.80;1.00;;;;;;5075081;28;20505;-77
2021/08/30 13:23:32;;;;;;;12.17;6.93;;;20.80;1.00;;;;;;5076556;28;20767;-79
2021/08/30 13:25:57;;;;;;;10.77;6.80;;;20.70;1.00;;;;;;5064674;28;20893;-79
2021/08/30 13:28:23;;;;;;;9.90;6.67;;;20.70;1.00;;;;;;5068582;28;20458;-79
2021/08/30 13:30:49;;;;;;;12.33;7.47;;;20.60;1.00;;;;;;5071988;28;20189;-80
2021/08/30 13:33:14;;;;;;;13.23;7.20;;;20.60;1.00;;;;;;5058228;28;20189;-82
2021/08/30 13:35:42;;;;;;;10.50;7.10;;;20.60;1.00;;;;;;5076514;28;20156;-86
2021/08/30 13:38:08;;;;;;;12.30;7.37;;;20.60;1.00;;;;;;5075682;28;20204;-93
2021/08/30 13:40:34;;;;;;;12.17;8.10;;;20.60;1.00;;;;;;5071641;28;20425;-78